Time;durP1;ratioP1;P1;durP2;ratioP2;P2;SDS_P1;SDS_P2;PMS_P1;PMS_P2;Temp;Humidity;BMP_temperature;BMP_pressure;BME280_temperature;BME280_humidity;BME280_pressure;Samples;Min_cycle;Max_cycle;Signal;HPM_P1;HPM_P2
2022/05/23 00:00:24;;;;;;;4.25;2.03;;;11.70;99.90;;;;;;4989301;28;20073;-41
2022/05/23 00:02:50;;;;;;;6.82;2.60;;;11.60;99.90;;;;;;4988480;28;20038;-39
2022/05/23 00:05:16;;;;;;;8.13;2.63;;;11.60;99.90;;;;;;4988776;28;20089;-40
2022/05/23 00:07:45;;;;;;;4.10;2.35;;;11.50;99.90;;;;;;4989227;28;20038;-39
2022/05/23 00:10:12;;;;;;;5.30;2.92;;;11.80;99.90;;;;;;4989119;28;20113;-39
2022/05/23 00:12:39;;;;;;;5.43;2.35;;;11.60;99.90;;;;;;4988814;28;20049;-39
2022/05/23 00:15:07;;;;;;;6.50;2.08;;;12.20;99.90;;;;;;4989606;28;20034;-39
2022/05/23 00:17:33;;;;;;;6.72;2.30;;;11.40;99.90;;;;;;4988671;28;20046;-39
2022/05/23 00:19:58;;;;;;;9.25;2.63;;;11.40;99.90;;;;;;4989515;28;20100;-39
2022/05/23 00:22:24;;;;;;;7.07;2.30;;;11.80;99.90;;;;;;4989283;28;20402;-39
2022/05/23 00:24:50;;;;;;;6.03;2.33;;;11.60;99.90;;;;;;4988836;28;20498;-40
2022/05/23 00:27:19;;;;;;;4.55;2.03;;;11.60;99.90;;;;;;4989162;28;20050;-39
2022/05/23 00:29:45;;;;;;;7.78;2.45;;;11.30;99.90;;;;;;4988479;28;20042;-39
2022/05/23 00:37:39;;;;;;;4.20;1.80;;;11.20;99.90;;;;;;4992970;28;20105;-39
2022/05/23 00:40:06;;;;;;;6.90;4.05;;;11.60;99.90;;;;;;4990829;28;20054;-39
2022/05/23 00:45:19;;;;;;;5.78;1.98;;;11.60;99.90;;;;;;4992195;28;20049;-39
2022/05/23 00:47:46;;;;;;;9.10;2.70;;;11.70;99.90;;;;;;4991926;28;20046;-39
2022/05/23 00:50:16;;;;;;;4.60;2.17;;;11.10;99.90;;;;;;4991512;28;20051;-39
2022/05/23 00:52:51;;;;;;;11.65;2.97;;;11.60;99.90;;;;;;4992962;28;20038;-39
2022/05/23 00:55:24;;;;;;;5.40;2.13;;;;;;;;;;4991532;28;20038;-39
2022/05/23 00:57:53;;;;;;;5.40;2.42;;;10.90;99.90;;;;;;4990226;28;20089;-39
2022/05/23 01:00:19;;;;;;;5.43;2.35;;;10.80;99.90;;;;;;4974485;28;20494;-39
2022/05/23 01:02:51;;;;;;;5.00;2.00;;;10.80;99.90;;;;;;4992239;28;20070;-39
2022/05/23 01:05:18;;;;;;;5.20;2.40;;;11.20;99.90;;;;;;4992043;28;20096;-39
2022/05/23 01:07:44;;;;;;;4.78;2.53;;;10.70;99.90;;;;;;4991919;28;20057;-40
2022/05/23 01:10:10;;;;;;;8.18;2.78;;;10.70;99.90;;;;;;4991811;28;20038;-39
2022/05/23 01:12:37;;;;;;;6.70;2.53;;;10.70;99.90;;;;;;4990392;28;20498;-39
2022/05/23 01:15:05;;;;;;;4.35;2.28;;;10.60;99.90;;;;;;4991933;28;20046;-39
2022/05/23 01:17:31;;;;;;;5.57;2.50;;;10.60;99.90;;;;;;4990504;28;20042;-39
2022/05/23 01:19:57;;;;;;;6.22;2.72;;;10.60;99.90;;;;;;4991319;28;20169;-39
2022/05/23 01:22:47;;;;;;;4.35;2.38;;;10.60;99.90;;;;;;4991987;28;20390;-39
2022/05/23 01:25:17;;;;;;;9.18;2.72;;;10.60;99.90;;;;;;4992123;28;20093;-39
2022/05/23 01:27:43;;;;;;;4.95;2.70;;;10.70;99.90;;;;;;4991776;28;20089;-39
2022/05/23 01:30:10;;;;;;;7.32;3.00;;;10.80;99.90;;;;;;4991594;28;20048;-39
2022/05/23 01:32:38;;;;;;;8.82;3.10;;;10.50;99.90;;;;;;4990470;28;20076;-39
2022/05/23 01:35:05;;;;;;;6.22;2.38;;;11.30;99.90;;;;;;4990867;28;20081;-40
2022/05/23 01:37:31;;;;;;;5.90;3.33;;;10.50;99.90;;;;;;4991704;28;20379;-39
2022/05/23 01:39:57;;;;;;;5.85;2.72;;;10.90;99.90;;;;;;4990904;28;20061;-39
2022/05/23 01:42:23;;;;;;;5.60;2.85;;;11.40;99.90;;;;;;4990104;28;20050;-39
2022/05/23 01:44:48;;;;;;;7.10;2.55;;;10.50;99.90;;;;;;4990306;28;20042;-39
2022/05/23 01:47:18;;;;;;;7.50;3.00;;;10.30;99.90;;;;;;4989895;28;20046;-40
2022/05/23 01:49:44;;;;;;;6.65;2.97;;;11.40;99.90;;;;;;4990210;28;20058;-39
2022/05/23 01:52:11;;;;;;;6.85;3.05;;;10.50;99.90;;;;;;4990867;28;20054;-39
2022/05/23 01:54:38;;;;;;;7.07;3.25;;;10.50;99.90;;;;;;4990838;28;20553;-39
2022/05/23 01:57:05;;;;;;;10.23;3.72;;;10.50;99.90;;;;;;4991165;28;20046;-39
2022/05/23 02:02:16;;;;;;;7.43;4.85;;;10.40;99.90;;;;;;4991390;28;20052;-39
2022/05/23 02:04:42;;;;;;;7.80;3.40;;;10.60;99.90;;;;;;4991034;28;20045;-39
2022/05/23 02:07:08;;;;;;;7.68;3.67;;;10.70;99.90;;;;;;4990688;28;20058;-39
2022/05/23 02:09:34;;;;;;;5.35;3.83;;;10.40;99.90;;;;;;4990466;28;20050;-40
2022/05/23 02:12:00;;;;;;;7.93;3.70;;;11.00;99.90;;;;;;4991088;28;20052;-39
2022/05/23 02:14:26;;;;;;;10.77;4.68;;;10.60;99.90;;;;;;4990773;28;20034;-39
2022/05/23 02:16:52;;;;;;;7.68;4.25;;;10.80;99.90;;;;;;4990186;28;20049;-39
2022/05/23 02:19:18;;;;;;;6.55;4.63;;;10.80;99.90;;;;;;4989910;28;20163;-41
2022/05/23 02:21:44;;;;;;;6.13;5.15;;;10.70;99.90;;;;;;4990612;28;20043;-39
2022/05/23 02:24:09;;;;;;;5.22;4.05;;;10.70;99.90;;;;;;4990407;28;20045;-39
2022/05/23 02:26:36;;;;;;;6.90;4.25;;;11.40;99.90;;;;;;4990518;28;20188;-39
2022/05/23 02:29:02;;;;;;;6.93;4.75;;;10.60;99.90;;;;;;4988981;28;20042;-39
2022/05/23 02:31:28;;;;;;;6.78;4.70;;;10.70;99.90;;;;;;4990371;28;20049;-39
2022/05/23 02:33:54;;;;;;;8.93;4.88;;;10.40;99.90;;;;;;4989955;28;20047;-39
2022/05/23 02:36:20;;;;;;;9.80;4.97;;;10.40;99.90;;;;;;4989164;28;20077;-39
2022/05/23 02:38:46;;;;;;;14.18;5.78;;;11.00;99.90;;;;;;4990536;28;20412;-39
2022/05/23 02:41:12;;;;;;;11.38;4.85;;;10.70;99.90;;;;;;4990458;28;20088;-39
2022/05/23 02:43:38;;;;;;;8.32;4.20;;;10.30;99.90;;;;;;4990191;28;20124;-39
2022/05/23 02:46:03;;;;;;;5.82;3.90;;;10.60;99.90;;;;;;4989854;28;20050;-39
2022/05/23 02:48:29;;;;;;;7.85;4.15;;;10.80;99.90;;;;;;4990180;28;20040;-40
2022/05/23 02:50:55;;;;;;;5.93;3.92;;;10.50;99.90;;;;;;4988820;28;20116;-39
2022/05/23 02:53:21;;;;;;;9.77;4.43;;;11.30;99.90;;;;;;4989204;28;20053;-39
2022/05/23 02:55:46;;;;;;;7.20;3.90;;;11.70;99.90;;;;;;4989864;28;20038;-39
2022/05/23 02:58:12;;;;;;;4.78;3.15;;;10.80;99.90;;;;;;4988823;28;20582;-39
2022/05/23 03:00:38;;;;;;;6.88;3.80;;;11.80;99.90;;;;;;4989745;28;20048;-39
2022/05/23 03:03:06;;;;;;;4.85;3.83;;;10.60;99.90;;;;;;4988627;28;20410;-39
2022/05/23 03:05:41;;;;;;;10.75;4.25;;;10.80;99.90;;;;;;4989935;28;20442;-39
2022/05/23 03:08:08;;;;;;;6.85;4.18;;;10.90;99.90;;;;;;4990649;28;20053;-39
2022/05/23 03:10:34;;;;;;;6.82;3.85;;;10.90;99.90;;;;;;4989972;28;20093;-39
2022/05/23 03:12:59;;;;;;;6.78;4.03;;;10.90;99.90;;;;;;4989477;28;20046;-39
2022/05/23 03:15:25;;;;;;;7.80;4.28;;;11.00;99.90;;;;;;4989321;28;20049;-39
2022/05/23 03:17:50;;;;;;;8.48;4.70;;;10.80;99.90;;;;;;4989479;28;20046;-39
2022/05/23 03:20:17;;;;;;;7.35;4.15;;;11.10;99.90;;;;;;4988787;28;20042;-39
2022/05/23 03:28:12;;;;;;;6.63;3.15;;;11.40;99.90;;;;;;4989844;28;20049;-39
2022/05/23 03:30:38;;;;;;;4.35;3.50;;;11.10;99.90;;;;;;4989716;28;20042;-39
2022/05/23 03:33:04;;;;;;;5.57;3.65;;;11.20;99.90;;;;;;4989110;28;20085;-39
2022/05/23 03:35:31;;;;;;;7.55;4.22;;;11.20;99.90;;;;;;4989632;28;20084;-39
2022/05/23 03:37:57;;;;;;;6.95;3.45;;;11.10;99.90;;;;;;4988198;28;20046;-39
2022/05/23 03:40:23;;;;;;;6.32;3.50;;;11.00;99.90;;;;;;4987983;28;20050;-39
2022/05/23 03:42:49;;;;;;;6.53;3.85;;;11.30;99.90;;;;;;4989672;28;20390;-39
2022/05/23 03:45:15;;;;;;;6.88;4.88;;;11.30;99.90;;;;;;4989288;28;20038;-39
2022/05/23 03:47:41;;;;;;;5.60;3.58;;;11.30;99.90;;;;;;4989600;28;20047;-39
2022/05/23 03:50:08;;;;;;;4.78;3.90;;;11.40;99.90;;;;;;4986686;28;20062;-39
2022/05/23 03:52:34;;;;;;;8.02;3.95;;;11.50;99.90;;;;;;4989223;28;20050;-39
2022/05/23 03:54:59;;;;;;;4.22;3.60;;;11.40;99.90;;;;;;4989060;28;20050;-39
2022/05/23 03:57:25;;;;;;;9.27;3.60;;;11.40;99.90;;;;;;4989866;28;20047;-39
2022/05/23 03:59:54;;;;;;;8.82;4.05;;;11.80;99.90;;;;;;4988619;28;20497;-39
2022/05/23 04:02:20;;;;;;;7.47;4.07;;;12.10;99.90;;;;;;4988923;28;20042;-39
2022/05/23 04:04:46;;;;;;;7.93;4.07;;;11.60;99.90;;;;;;4989430;28;20125;-39
2022/05/23 04:07:13;;;;;;;8.23;4.55;;;11.90;99.90;;;;;;4989036;28;20046;-39
2022/05/23 04:09:39;;;;;;;5.57;4.03;;;11.60;99.90;;;;;;4992774;28;20121;-39
2022/05/23 04:12:06;;;;;;;5.65;3.78;;;11.40;99.90;;;;;;4993141;28;20114;-39
2022/05/23 04:14:32;;;;;;;7.78;4.32;;;11.50;99.90;;;;;;4993497;28;20073;-39
2022/05/23 04:16:57;;;;;;;6.35;3.38;;;11.50;99.90;;;;;;4993309;28;20524;-39
2022/05/23 04:19:23;;;;;;;7.80;4.25;;;11.50;99.90;;;;;;4993580;28;20322;-39
2022/05/23 04:21:49;;;;;;;13.05;5.05;;;11.60;99.90;;;;;;4992455;28;20490;-39
2022/05/23 04:24:17;;;;;;;6.22;4.30;;;11.50;99.90;;;;;;4992685;28;20050;-39
2022/05/23 04:26:43;;;;;;;9.50;4.85;;;11.60;99.90;;;;;;4992602;28;20489;-39
2022/05/23 04:29:09;;;;;;;10.13;4.53;;;11.60;99.90;;;;;;4992951;28;20042;-39
2022/05/23 04:31:36;;;;;;;11.00;4.10;;;11.80;99.90;;;;;;4992680;28;20092;-39
2022/05/23 04:36:48;;;;;;;8.52;4.47;;;11.80;99.90;;;;;;4992830;28;20096;-39
2022/05/23 04:39:14;;;;;;;8.65;3.67;;;11.70;99.90;;;;;;4992341;28;20132;-39
2022/05/23 04:41:40;;;;;;;9.38;4.38;;;11.80;99.90;;;;;;4992402;28;20081;-40
2022/05/23 04:44:07;;;;;;;10.25;4.55;;;11.90;99.90;;;;;;4992426;28;20047;-39
2022/05/23 04:46:33;;;;;;;8.00;4.50;;;11.60;99.90;;;;;;4992007;28;20077;-39
2022/05/23 04:51:43;;;;;;;6.70;4.43;;;11.80;99.90;;;;;;4991567;28;20662;-39
2022/05/23 04:54:09;;;;;;;7.15;4.32;;;11.80;99.90;;;;;;4992204;28;20046;-39
2022/05/23 04:56:37;;;;;;;9.50;4.07;;;11.90;99.90;;;;;;4992579;28;20129;-39
2022/05/23 04:59:03;;;;;;;9.02;4.95;;;12.20;99.90;;;;;;4991737;28;20093;-39
2022/05/23 05:01:30;;;;;;;8.32;4.82;;;12.30;99.90;;;;;;4992003;28;20038;-39
2022/05/23 05:03:57;;;;;;;8.25;4.22;;;12.60;99.90;;;;;;4992075;28;20216;-39
2022/05/23 05:06:24;;;;;;;9.88;4.38;;;12.90;99.90;;;;;;4991938;28;20565;-39
2022/05/23 05:08:51;;;;;;;12.02;4.30;;;13.60;99.90;;;;;;4991944;28;20046;-39
2022/05/23 05:11:17;;;;;;;8.57;3.90;;;13.60;99.90;;;;;;4991872;28;20371;-39
2022/05/23 05:13:43;;;;;;;8.48;3.50;;;14.20;99.90;;;;;;4992032;28;20045;-39
2022/05/23 05:16:09;;;;;;;7.70;3.60;;;14.60;99.90;;;;;;4991722;28;20117;-39
2022/05/23 05:18:35;;;;;;;5.03;3.00;;;15.10;99.90;;;;;;4992212;28;20050;-39
2022/05/23 05:21:09;;;;;;;10.15;4.03;;;15.30;99.90;;;;;;4989998;28;20185;-39
2022/05/23 05:23:35;;;;;;;6.00;3.17;;;15.40;99.90;;;;;;4991652;28;20290;-39
2022/05/23 05:26:02;;;;;;;5.57;3.10;;;15.60;99.90;;;;;;4992060;28;20064;-40
2022/05/23 05:28:29;;;;;;;5.07;3.10;;;15.20;99.90;;;;;;4991349;28;20038;-39
2022/05/23 05:31:21;;;;;;;7.85;4.00;;;15.50;99.60;;;;;;4991887;28;20105;-39
2022/05/23 05:33:52;;;;;;;6.13;3.13;;;16.20;97.80;;;;;;4990343;28;20386;-39
2022/05/23 05:36:23;;;;;;;5.85;3.40;;;16.30;96.60;;;;;;4991380;28;20061;-40
2022/05/23 05:39:05;;;;;;;8.88;3.20;;;16.50;96.60;;;;;;4990546;28;20363;-39
2022/05/23 05:41:39;;;;;;;9.80;2.97;;;17.00;95.60;;;;;;4991630;28;20054;-39
2022/05/23 05:44:09;;;;;;;6.03;3.05;;;17.20;95.50;;;;;;4991337;28;20053;-40
2022/05/23 05:46:39;;;;;;;6.88;3.35;;;17.40;97.20;;;;;;4991185;28;20045;-40
2022/05/23 05:49:11;;;;;;;8.07;3.67;;;17.80;98.90;;;;;;4991399;28;20058;-40
2022/05/23 05:51:39;;;;;;;7.05;3.00;;;18.10;98.80;;;;;;4990652;28;20121;-41
2022/05/23 05:54:08;;;;;;;6.28;2.97;;;18.20;98.50;;;;;;4990037;28;20046;-40
2022/05/23 05:56:35;;;;;;;8.85;3.60;;;18.30;97.30;;;;;;4991343;28;20061;-39
2022/05/23 05:59:00;;;;;;;7.88;3.20;;;18.40;96.20;;;;;;4991065;28;20112;-40
2022/05/23 06:01:26;;;;;;;5.90;3.05;;;18.30;96.30;;;;;;4991046;28;20497;-40
2022/05/23 06:03:52;;;;;;;8.85;3.22;;;18.40;95.70;;;;;;4989106;28;20050;-39
2022/05/23 06:11:47;;;;;;;7.43;3.30;;;18.20;96.00;;;;;;4990553;28;20049;-40
2022/05/23 06:14:13;;;;;;;7.78;3.30;;;17.90;96.10;;;;;;4990985;28;20394;-40
2022/05/23 06:16:39;;;;;;;7.80;3.00;;;18.10;96.00;;;;;;4991037;28;20502;-39
2022/05/23 06:19:05;;;;;;;7.05;2.90;;;18.50;95.70;;;;;;4990792;28;20049;-40
2022/05/23 06:21:31;;;;;;;7.32;3.63;;;18.70;91.30;;;;;;4989902;28;20053;-39
2022/05/23 06:23:57;;;;;;;4.93;2.80;;;19.00;91.30;;;;;;4990455;28;20038;-41
2022/05/23 06:26:26;;;;;;;7.35;2.70;;;19.40;91.30;;;;;;4990231;28;20125;-40
2022/05/23 06:28:52;;;;;;;8.18;2.75;;;20.40;90.30;;;;;;4990737;28;20112;-41
2022/05/23 06:31:19;;;;;;;10.25;3.53;;;23.50;85.90;;;;;;4990118;28;20042;-41
2022/05/23 06:33:45;;;;;;;5.43;3.03;;;23.40;80.40;;;;;;4990272;28;20065;-41
2022/05/23 06:36:12;;;;;;;7.68;2.80;;;24.00;75.60;;;;;;4990695;28;20085;-40
2022/05/23 06:38:39;;;;;;;5.47;2.55;;;24.20;73.30;;;;;;4989916;28;20068;-41
2022/05/23 06:41:06;;;;;;;5.97;3.08;;;24.00;72.90;;;;;;4989378;28;20767;-41
2022/05/23 06:43:37;;;;;;;9.13;2.50;;;23.60;71.50;;;;;;4990016;28;20393;-40
2022/05/23 06:46:03;;;;;;;8.07;2.50;;;23.40;69.00;;;;;;4990070;28;20608;-40
2022/05/23 06:48:30;;;;;;;7.07;2.60;;;23.50;70.20;;;;;;4989972;28;20089;-40
2022/05/23 06:50:56;;;;;;;7.32;3.00;;;23.90;69.00;;;;;;4989299;28;20387;-40
2022/05/23 06:53:24;;;;;;;6.18;2.53;;;24.70;68.00;;;;;;4990071;28;20040;-39
2022/05/23 06:55:51;;;;;;;8.70;2.80;;;25.40;65.80;;;;;;4990112;28;20547;-40
2022/05/23 06:58:19;;;;;;;5.25;3.47;;;25.80;64.50;;;;;;4988675;28;20050;-40
2022/05/23 07:00:45;;;;;;;6.35;2.97;;;26.30;64.10;;;;;;4990711;28;20046;-41
2022/05/23 07:03:11;;;;;;;6.95;2.58;;;26.90;63.00;;;;;;4989984;28;20482;-40
2022/05/23 07:13:55;;;;;;;3.88;2.45;;;29.80;58.90;;;;;;4989864;28;20060;-40
2022/05/23 07:16:22;;;;;;;7.30;2.53;;;30.50;58.20;;;;;;4989693;28;20038;-40
2022/05/23 07:18:47;;;;;;;6.07;2.58;;;31.10;56.30;;;;;;4990103;28;20120;-40
2022/05/23 07:21:13;;;;;;;6.53;3.20;;;31.60;54.70;;;;;;4989814;28;20042;-40
2022/05/23 07:23:39;;;;;;;5.25;2.17;;;32.10;67.80;;;;;;4958897;28;20405;-40
2022/05/23 07:26:07;;;;;;;4.70;2.05;;;31.50;63.80;;;;;;4986460;28;20084;-41
2022/05/23 07:28:35;;;;;;;4.22;2.53;;;30.40;65.80;;;;;;4985949;28;20057;-39
2022/05/23 07:31:02;;;;;;;5.55;2.83;;;29.80;67.10;;;;;;4986496;28;20046;-41
2022/05/23 07:33:28;;;;;;;4.10;2.17;;;29.10;65.30;;;;;;4984928;28;20058;-42
2022/05/23 07:35:58;;;;;;;6.80;2.80;;;28.30;61.90;;;;;;4985478;28;20097;-42
2022/05/23 07:38:24;;;;;;;4.97;2.55;;;27.80;67.40;;;;;;4985492;28;20650;-40
2022/05/23 07:40:54;;;;;;;8.23;3.38;;;27.40;63.10;;;;;;4986171;28;20081;-41
2022/05/23 07:43:20;;;;;;;5.93;2.83;;;27.30;62.80;;;;;;4984248;28;20056;-39
2022/05/23 07:45:49;;;;;;;5.65;2.90;;;27.70;62.60;;;;;;4985771;28;20121;-40
2022/05/23 07:48:14;;;;;;;8.63;2.88;;;27.80;62.60;;;;;;4985415;28;20046;-40
2022/05/23 07:50:43;;;;;;;4.85;2.33;;;28.10;62.90;;;;;;4982808;28;20065;-41
2022/05/23 08:01:24;;;;;;;3.85;1.80;;;30.90;54.80;;;;;;4985906;28;20085;-39
2022/05/23 08:03:50;;;;;;;4.80;2.42;;;32.30;64.10;;;;;;4985727;28;20046;-36
2022/05/23 08:06:16;;;;;;;5.80;1.98;;;32.40;51.30;;;;;;4983652;28;20101;-36
2022/05/23 08:08:42;;;;;;;6.07;2.42;;;33.20;50.30;;;;;;4984519;28;20049;-37
2022/05/23 08:11:08;;;;;;;6.03;2.70;;;33.70;49.60;;;;;;4984127;28;20038;-37
2022/05/23 08:13:40;;;;;;;7.90;2.42;;;34.10;48.30;;;;;;4983882;28;20069;-37
2022/05/23 08:16:07;;;;;;;9.45;3.40;;;34.30;48.00;;;;;;4984914;28;20088;-34
2022/05/23 08:18:33;;;;;;;6.70;2.50;;;34.40;48.20;;;;;;4983642;28;20050;-35
2022/05/23 08:20:59;;;;;;;4.65;1.60;;;34.50;47.60;;;;;;4984408;28;20053;-35
2022/05/23 08:23:25;;;;;;;4.95;1.88;;;34.60;46.90;;;;;;4962880;28;20065;-36
2022/05/23 08:25:51;;;;;;;4.43;1.88;;;34.80;46.90;;;;;;4985131;28;20056;-36
2022/05/23 08:28:17;;;;;;;5.97;2.13;;;35.20;46.30;;;;;;4983457;28;20402;-35
2022/05/23 08:30:43;;;;;;;3.78;1.63;;;35.70;45.50;;;;;;4983365;28;20050;-35
2022/05/23 08:33:11;;;;;;;4.95;1.85;;;36.40;45.00;;;;;;4985148;28;20049;-34
2022/05/23 08:35:37;;;;;;;5.00;1.90;;;36.70;44.40;;;;;;4985048;28;20129;-38
2022/05/23 08:38:04;;;;;;;5.15;2.10;;;36.20;43.50;;;;;;4984473;28;20074;-38
2022/05/23 08:40:58;;;;;;;7.82;2.28;;;35.90;44.50;;;;;;4984388;28;20053;-38
2022/05/23 08:43:30;;;;;;;7.70;1.50;;;36.20;45.50;;;;;;4984991;28;20061;-38
2022/05/23 08:45:57;;;;;;;5.20;1.92;;;36.40;44.80;;;;;;4985509;28;20070;-38
2022/05/23 08:48:47;;;;;;;4.90;1.75;;;36.20;43.50;;;;;;4985253;28;20122;-38
2022/05/23 08:51:23;;;;;;;4.10;1.58;;;35.50;44.10;;;;;;4983984;28;20128;-38
2022/05/23 08:53:54;;;;;;;4.15;1.90;;;35.00;44.00;;;;;;4984628;28;20058;-38
2022/05/23 08:56:26;;;;;;;5.50;1.50;;;35.10;45.80;;;;;;4988910;28;20053;-38
2022/05/23 08:58:55;;;;;;;5.40;2.65;;;35.10;45.90;;;;;;4988614;28;20081;-38
2022/05/23 09:01:34;;;;;;;6.07;2.63;;;35.10;45.30;;;;;;4988678;28;20054;-38
2022/05/23 09:04:26;;;;;;;4.65;2.10;;;35.40;45.30;;;;;;4988266;28;20049;-38
2022/05/23 09:06:52;;;;;;;16.15;2.67;;;35.80;45.80;;;;;;4979410;28;20046;-38
2022/05/23 09:09:21;;;;;;;4.05;1.92;;;35.80;44.20;;;;;;4987727;28;20050;-38
2022/05/23 09:11:53;;;;;;;7.05;2.17;;;35.60;44.50;;;;;;4988707;28;20042;-38
2022/05/23 09:14:20;;;;;;;5.00;1.58;;;35.50;44.40;;;;;;4988865;28;20046;-49
2022/05/23 09:16:54;;;;;;;4.13;2.10;;;36.00;44.80;;;;;;4988203;28;20081;-41
2022/05/23 09:19:28;;;;;;;4.40;1.92;;;36.50;43.90;;;;;;4987317;28;20057;-42
2022/05/23 09:22:36;;;;;;;5.97;2.05;;;37.00;43.00;;;;;;4986863;28;20660;-42
2022/05/23 09:25:05;;;;;;;4.63;2.10;;;36.70;43.30;;;;;;4964688;28;20133;-42
2022/05/23 09:27:31;;;;;;;8.05;1.75;;;36.20;43.60;;;;;;4987560;28;20528;-42
2022/05/23 09:29:58;;;;;;;7.15;1.75;;;35.90;44.20;;;;;;4987494;28;20038;-43
2022/05/23 09:32:35;;;;;;;2.72;1.67;;;36.00;44.20;;;;;;4988418;28;20669;-41
2022/05/23 09:35:04;;;;;;;5.88;1.45;;;36.30;43.20;;;;;;4987945;28;20046;-42
2022/05/23 09:37:38;;;;;;;4.35;1.05;;;36.30;43.00;;;;;;4986514;28;20687;-50
2022/05/23 09:40:06;;;;;;;4.85;1.23;;;36.30;43.40;;;;;;4987645;28;20046;-53
2022/05/23 09:48:18;;;;;;;2.35;0.85;;;36.70;43.10;;;;;;4987515;28;20060;-50
2022/05/23 09:50:52;;;;;;;5.13;1.10;;;37.10;43.20;;;;;;4986913;28;20442;-48
2022/05/23 09:53:30;;;;;;;4.82;1.13;;;37.40;42.80;;;;;;4987534;28;20038;-49
2022/05/23 09:56:38;;;;;;;1.77;1.05;;;37.60;41.10;;;;;;4988588;28;20042;-47
2022/05/23 09:59:19;;;;;;;3.65;1.13;;;37.40;41.70;;;;;;4990205;28;20053;-44
2022/05/23 10:01:45;;;;;;;3.72;0.95;;;37.40;41.00;;;;;;4983819;28;20053;-49
2022/05/23 10:04:29;;;;;;;3.40;0.90;;;37.30;41.00;;;;;;4983942;28;20502;-53
2022/05/23 10:06:55;;;;;;;4.07;1.13;;;37.60;40.30;;;;;;4986242;28;20052;-46
2022/05/23 10:09:30;;;;;;;6.97;1.50;;;37.90;40.40;;;;;;4987333;28;20047;-49
2022/05/23 10:12:07;;;;;;;5.00;1.15;;;37.70;40.30;;;;;;4988495;28;20440;-44
2022/05/23 10:15:00;;;;;;;4.03;1.20;;;36.00;39.60;;;;;;4978643;28;20153;-51
2022/05/23 10:17:31;;;;;;;6.75;1.48;;;33.70;41.80;;;;;;4986766;28;20505;-48
2022/05/23 10:20:15;;;;;;;4.55;1.30;;;32.10;44.30;;;;;;4987098;28;20480;-48
2022/05/23 10:22:54;;;;;;;3.50;1.45;;;30.90;46.20;;;;;;4987553;28;20244;-49
2022/05/23 10:25:20;;;;;;;6.20;1.60;;;29.80;47.60;;;;;;4986660;28;20046;-48
2022/05/23 10:28:16;;;;;;;5.47;1.30;;;28.90;48.50;;;;;;4984792;28;20058;-43
2022/05/23 10:30:57;;;;;;;4.47;1.30;;;28.60;49.70;;;;;;4988973;28;20047;-44
2022/05/23 10:33:27;;;;;;;5.32;1.50;;;28.70;50.90;;;;;;4992099;28;20397;-49
2022/05/23 10:36:10;;;;;;;4.18;1.88;;;28.60;50.80;;;;;;4991584;28;20050;-49
2022/05/23 10:44:53;;;;;;;4.32;1.65;;;27.70;52.40;;;;;;4991731;28;20046;-48
2022/05/23 10:47:41;;;;;;;3.97;1.50;;;27.80;52.80;;;;;;4991135;28;20054;-48
2022/05/23 10:50:35;;;;;;;7.68;1.50;;;28.00;53.50;;;;;;4991102;28;20129;-48
2022/05/23 10:53:19;;;;;;;6.47;2.17;;;28.30;52.90;;;;;;4991273;28;20756;-47
2022/05/23 10:56:20;;;;;;;6.00;1.90;;;28.40;52.60;;;;;;4990652;28;20076;-49
2022/05/23 10:59:19;;;;;;;5.78;2.00;;;27.80;53.30;;;;;;4982287;28;20379;-49
2022/05/23 11:01:56;;;;;;;4.50;1.40;;;;;;;;;;4982252;28;20062;-49
2022/05/23 11:04:31;;;;;;;5.15;1.38;;;27.10;53.40;;;;;;4990981;28;20093;-48
2022/05/23 11:07:02;;;;;;;6.43;1.42;;;26.60;53.50;;;;;;4990870;28;20042;-48
2022/05/23 11:09:46;;;;;;;7.03;1.17;;;26.20;55.50;;;;;;4990626;28;20045;-48
2022/05/23 11:12:33;;;;;;;3.97;1.02;;;26.10;56.40;;;;;;4990409;28;20533;-48
2022/05/23 11:15:30;;;;;;;4.88;1.20;;;26.00;57.80;;;;;;4990802;28;20038;-52
2022/05/23 11:18:05;;;;;;;5.57;1.20;;;25.90;56.30;;;;;;4990474;28;20046;-49
2022/05/23 11:20:36;;;;;;;3.83;0.93;;;25.60;57.40;;;;;;4990822;28;20081;-49
2022/05/23 11:23:23;;;;;;;4.90;1.13;;;25.50;57.60;;;;;;4991198;28;20065;-48
2022/05/23 11:25:56;;;;;;;3.78;0.80;;;25.50;56.50;;;;;;4990825;28;20285;-47
2022/05/23 11:34:22;;;;;;;4.05;1.00;;;25.60;55.80;;;;;;4990206;28;20064;-48
2022/05/23 11:37:07;;;;;;;5.80;0.90;;;25.60;56.70;;;;;;4989781;28;20496;-49
2022/05/23 11:39:51;;;;;;;4.15;0.85;;;25.50;56.50;;;;;;4990157;28;20030;-48
2022/05/23 11:42:17;;;;;;;5.28;1.20;;;25.50;56.70;;;;;;4990395;28;20050;-49
2022/05/23 11:44:43;;;;;;;5.82;1.15;;;25.60;61.70;;;;;;4990529;28;20053;-52
2022/05/23 11:47:25;;;;;;;5.55;1.00;;;25.50;65.00;;;;;;4990452;28;20077;-49
2022/05/23 11:49:59;;;;;;;2.63;0.93;;;25.60;69.30;;;;;;4989971;28;20373;-49
2022/05/23 11:52:54;;;;;;;2.97;0.95;;;25.60;72.80;;;;;;4990702;28;20050;-49
2022/05/23 11:55:51;;;;;;;3.13;1.13;;;25.80;66.80;;;;;;4990722;28;20175;-49
2022/05/23 11:58:39;;;;;;;3.63;1.48;;;25.90;62.90;;;;;;4989786;28;20504;-48
2022/05/23 12:01:18;;;;;;;3.08;1.05;;;26.10;66.90;;;;;;4989735;28;20085;-48
2022/05/23 12:03:47;;;;;;;4.20;1.13;;;26.10;66.20;;;;;;4990176;28;20545;-49
2022/05/23 12:06:23;;;;;;;4.82;1.17;;;26.00;65.80;;;;;;4990373;28;20125;-48
2022/05/23 12:08:58;;;;;;;3.58;1.48;;;26.00;62.40;;;;;;4989689;28;20092;-50
2022/05/23 12:11:35;;;;;;;4.57;0.95;;;26.10;64.10;;;;;;4990438;28;20034;-50
2022/05/23 12:14:19;;;;;;;4.53;1.05;;;26.10;62.10;;;;;;4990210;28;20038;-50
2022/05/23 12:16:57;;;;;;;4.65;0.80;;;26.00;61.60;;;;;;4990335;28;20070;-49
2022/05/23 12:19:48;;;;;;;4.35;1.15;;;26.10;63.40;;;;;;4990175;28;20278;-49
2022/05/23 12:22:19;;;;;;;5.43;1.50;;;25.80;60.70;;;;;;4989712;28;20081;-49
2022/05/23 12:25:22;;;;;;;5.65;1.05;;;25.80;61.60;;;;;;4990424;28;20277;-49
2022/05/23 12:27:51;;;;;;;4.75;1.33;;;25.40;60.90;;;;;;4967972;28;20651;-49
2022/05/23 12:30:23;;;;;;;3.40;0.90;;;25.40;61.80;;;;;;4983931;28;20058;-48
2022/05/23 12:33:00;;;;;;;2.53;1.20;;;25.30;59.10;;;;;;4994051;28;20048;-50
2022/05/23 12:35:40;;;;;;;5.32;1.58;;;25.30;63.10;;;;;;4994124;28;20050;-51
2022/05/23 12:38:12;;;;;;;2.78;1.45;;;25.50;60.00;;;;;;4993342;28;20141;-49
2022/05/23 12:41:10;;;;;;;7.35;1.00;;;25.40;61.70;;;;;;4993334;28;20042;-47
2022/05/23 12:44:14;;;;;;;5.18;1.25;;;25.50;59.90;;;;;;4993943;28;20042;-48
2022/05/23 12:47:10;;;;;;;4.45;1.17;;;25.60;57.70;;;;;;4994109;28;20046;-48
2022/05/23 12:50:00;;;;;;;4.63;1.05;;;25.50;56.80;;;;;;4993602;28;20072;-47
2022/05/23 12:52:45;;;;;;;4.22;0.85;;;25.50;56.90;;;;;;4993746;28;20059;-47
2022/05/23 12:55:56;;;;;;;3.63;1.30;;;25.50;58.30;;;;;;4982037;28;20101;-47
2022/05/23 12:58:49;;;;;;;2.53;0.70;;;25.50;56.00;;;;;;4992663;28;20038;-47
2022/05/23 13:01:22;;;;;;;2.63;0.82;;;25.70;56.60;;;;;;4993380;28;20104;-48
2022/05/23 13:04:02;;;;;;;4.75;1.20;;;25.80;57.50;;;;;;4993608;28;20078;-50
2022/05/23 13:07:00;;;;;;;6.45;1.08;;;26.00;58.50;;;;;;4993462;28;20050;-49
2022/05/23 13:09:36;;;;;;;5.20;1.17;;;26.20;57.60;;;;;;4992817;28;20125;-50
2022/05/23 13:12:15;;;;;;;5.53;1.10;;;26.00;57.10;;;;;;4991658;28;20387;-49
2022/05/23 13:14:49;;;;;;;4.78;1.35;;;26.10;58.20;;;;;;4993442;28;20546;-50
2022/05/23 13:17:36;;;;;;;4.93;1.30;;;26.20;58.30;;;;;;4992958;28;20097;-50
2022/05/23 13:22:48;;;;;;;5.03;1.50;;;25.90;58.80;;;;;;4993362;28;20043;-49
2022/05/23 13:25:14;;;;;;;6.15;1.40;;;25.70;59.50;;;;;;4992715;28;20489;-48
2022/05/23 13:27:47;;;;;;;7.45;1.63;;;25.60;59.40;;;;;;4992812;28;20042;-48
2022/05/23 13:30:16;;;;;;;5.47;1.27;;;25.50;58.80;;;;;;4992550;28;20137;-48
2022/05/23 13:32:41;;;;;;;5.80;1.65;;;25.40;60.00;;;;;;4993010;28;20052;-48
2022/05/23 13:35:21;;;;;;;8.68;1.67;;;25.20;59.80;;;;;;4992876;28;20046;-50
2022/05/23 13:37:47;;;;;;;3.22;1.50;;;25.10;58.20;;;;;;4993273;28;20049;-48
2022/05/23 13:40:24;;;;;;;6.57;1.58;;;25.10;60.60;;;;;;4992379;28;20453;-49
2022/05/23 13:42:50;;;;;;;3.38;1.50;;;25.20;61.60;;;;;;4992982;28;20492;-48
2022/05/23 13:45:25;;;;;;;9.30;1.95;;;25.10;61.60;;;;;;4992868;28;20050;-48
2022/05/23 13:47:51;;;;;;;5.72;1.80;;;25.10;62.20;;;;;;4993053;28;20050;-48
2022/05/23 13:50:28;;;;;;;5.72;1.20;;;25.10;62.20;;;;;;4991997;28;20652;-48
2022/05/23 13:53:06;;;;;;;3.28;1.33;;;25.00;60.90;;;;;;4992444;28;20054;-48
2022/05/23 13:55:38;;;;;;;3.65;1.85;;;24.80;64.90;;;;;;4992744;28;20112;-48
2022/05/23 13:58:24;;;;;;;5.85;1.60;;;24.50;65.20;;;;;;4992566;28;20050;-48
2022/05/23 14:01:05;;;;;;;4.35;1.60;;;24.30;69.40;;;;;;4991814;28;20092;-48
2022/05/23 14:03:36;;;;;;;3.83;1.23;;;24.10;68.70;;;;;;4991981;28;20057;-48
2022/05/23 14:06:05;;;;;;;6.60;1.33;;;23.90;69.10;;;;;;4992083;28;20074;-50
2022/05/23 14:08:39;;;;;;;6.40;1.33;;;24.10;69.00;;;;;;4991919;28;20046;-48
2022/05/23 14:11:22;;;;;;;3.83;1.20;;;24.40;68.50;;;;;;4992229;28;20438;-48
2022/05/23 14:13:50;;;;;;;23.67;10.30;;;24.70;67.30;;;;;;4991919;28;20053;-49